sensor_id;sensor_type;location;lat;lon;timestamp;P1;durP1;ratioP1;P2;durP2;ratioP2
24102;SDS011;12278;53.058;9.028;2023-03-30T00:00:36;22.02;;;16.38;;
24102;SDS011;12278;53.058;9.028;2023-03-30T00:04:37;23.05;;;17.30;;
24102;SDS011;12278;53.058;9.028;2023-03-30T00:08:41;25.70;;;16.73;;
24102;SDS011;12278;53.058;9.028;2023-03-30T00:12:42;24.63;;;17.45;;
24102;SDS011;12278;53.058;9.028;2023-03-30T00:16:44;20.45;;;15.05;;
24102;SDS011;12278;53.058;9.028;2023-03-30T00:20:47;22.52;;;16.40;;
24102;SDS011;12278;53.058;9.028;2023-03-30T00:24:48;19.75;;;14.98;;
24102;SDS011;12278;53.058;9.028;2023-03-30T00:28:49;22.15;;;16.70;;
24102;SDS011;12278;53.058;9.028;2023-03-30T00:32:50;22.90;;;16.20;;
24102;SDS011;12278;53.058;9.028;2023-03-30T00:36:50;22.45;;;15.82;;
24102;SDS011;12278;53.058;9.028;2023-03-30T00:40:54;21.25;;;16.00;;
24102;SDS011;12278;53.058;9.028;2023-03-30T00:49:18;22.55;;;16.98;;
24102;SDS011;12278;53.058;9.028;2023-03-30T00:53:22;22.60;;;16.05;;
24102;SDS011;12278;53.058;9.028;2023-03-30T00:57:28;21.30;;;15.07;;
24102;SDS011;12278;53.058;9.028;2023-03-30T01:01:30;21.83;;;15.30;;
24102;SDS011;12278;53.058;9.028;2023-03-30T01:05:33;21.65;;;16.33;;
24102;SDS011;12278;53.058;9.028;2023-03-30T01:09:42;24.30;;;17.07;;
24102;SDS011;12278;53.058;9.028;2023-03-30T01:13:44;21.98;;;16.58;;
24102;SDS011;12278;53.058;9.028;2023-03-30T01:22:12;20.83;;;16.17;;
24102;SDS011;12278;53.058;9.028;2023-03-30T01:35:20;22.15;;;17.27;;
24102;SDS011;12278;53.058;9.028;2023-03-30T01:39:44;21.25;;;15.50;;
24102;SDS011;12278;53.058;9.028;2023-03-30T01:48:00;21.25;;;15.52;;
24102;SDS011;12278;53.058;9.028;2023-03-30T01:52:19;20.42;;;15.27;;
24102;SDS011;12278;53.058;9.028;2023-03-30T01:56:38;17.38;;;14.27;;
24102;SDS011;12278;53.058;9.028;2023-03-30T02:00:45;21.20;;;14.85;;
24102;SDS011;12278;53.058;9.028;2023-03-30T02:04:50;19.55;;;15.23;;
24102;SDS011;12278;53.058;9.028;2023-03-30T02:08:56;18.70;;;14.27;;
24102;SDS011;12278;53.058;9.028;2023-03-30T02:12:59;19.70;;;14.27;;
24102;SDS011;12278;53.058;9.028;2023-03-30T02:21:16;19.60;;;14.10;;
24102;SDS011;12278;53.058;9.028;2023-03-30T02:25:16;16.38;;;13.60;;
24102;SDS011;12278;53.058;9.028;2023-03-30T02:29:18;17.42;;;12.05;;
24102;SDS011;12278;53.058;9.028;2023-03-30T03:07:09;14.77;;;12.88;;
24102;SDS011;12278;53.058;9.028;2023-03-30T03:11:11;16.10;;;11.90;;
24102;SDS011;12278;53.058;9.028;2023-03-30T03:15:14;16.15;;;11.52;;
24102;SDS011;12278;53.058;9.028;2023-03-30T03:19:15;12.80;;;11.35;;
24102;SDS011;12278;53.058;9.028;2023-03-30T03:23:16;16.83;;;11.13;;
24102;SDS011;12278;53.058;9.028;2023-03-30T03:27:16;14.18;;;10.77;;
24102;SDS011;12278;53.058;9.028;2023-03-30T03:31:17;15.65;;;11.20;;
24102;SDS011;12278;53.058;9.028;2023-03-30T03:35:17;11.65;;;9.57;;
24102;SDS011;12278;53.058;9.028;2023-03-30T03:39:18;15.23;;;9.48;;
24102;SDS011;12278;53.058;9.028;2023-03-30T03:43:19;14.32;;;9.63;;
24102;SDS011;12278;53.058;9.028;2023-03-30T03:47:20;11.30;;;8.10;;
24102;SDS011;12278;53.058;9.028;2023-03-30T03:51:22;10.73;;;8.07;;
24102;SDS011;12278;53.058;9.028;2023-03-30T03:55:24;10.93;;;8.60;;
24102;SDS011;12278;53.058;9.028;2023-03-30T03:59:24;9.45;;;7.50;;
24102;SDS011;12278;53.058;9.028;2023-03-30T04:03:25;11.68;;;7.68;;
24102;SDS011;12278;53.058;9.028;2023-03-30T04:07:26;11.32;;;8.00;;
24102;SDS011;12278;53.058;9.028;2023-03-30T04:11:29;7.63;;;6.43;;
24102;SDS011;12278;53.058;9.028;2023-03-30T04:15:31;8.40;;;6.78;;
24102;SDS011;12278;53.058;9.028;2023-03-30T04:19:32;9.13;;;6.32;;
24102;SDS011;12278;53.058;9.028;2023-03-30T04:23:34;10.70;;;7.13;;
24102;SDS011;12278;53.058;9.028;2023-03-30T04:27:37;9.57;;;7.28;;
24102;SDS011;12278;53.058;9.028;2023-03-30T04:31:37;6.63;;;5.93;;
24102;SDS011;12278;53.058;9.028;2023-03-30T04:35:41;7.57;;;6.20;;
24102;SDS011;12278;53.058;9.028;2023-03-30T04:39:45;9.85;;;6.47;;
24102;SDS011;12278;53.058;9.028;2023-03-30T04:43:46;7.15;;;5.53;;
24102;SDS011;12278;53.058;9.028;2023-03-30T04:47:46;6.45;;;5.68;;
24102;SDS011;12278;53.058;9.028;2023-03-30T04:51:47;11.05;;;6.43;;
24102;SDS011;12278;53.058;9.028;2023-03-30T04:55:49;8.38;;;6.53;;
24102;SDS011;12278;53.058;9.028;2023-03-30T04:59:50;6.13;;;5.53;;
24102;SDS011;12278;53.058;9.028;2023-03-30T05:03:52;6.15;;;5.15;;
24102;SDS011;12278;53.058;9.028;2023-03-30T05:07:52;6.90;;;4.82;;
24102;SDS011;12278;53.058;9.028;2023-03-30T05:11:53;8.25;;;5.28;;
24102;SDS011;12278;53.058;9.028;2023-03-30T05:15:54;9.70;;;5.50;;
24102;SDS011;12278;53.058;9.028;2023-03-30T05:19:56;5.65;;;4.57;;
24102;SDS011;12278;53.058;9.028;2023-03-30T05:23:56;9.60;;;5.40;;
24102;SDS011;12278;53.058;9.028;2023-03-30T05:27:57;6.32;;;4.38;;
24102;SDS011;12278;53.058;9.028;2023-03-30T05:31:59;6.75;;;4.53;;
24102;SDS011;12278;53.058;9.028;2023-03-30T05:35:59;5.63;;;4.20;;
24102;SDS011;12278;53.058;9.028;2023-03-30T05:40:00;5.60;;;4.03;;
24102;SDS011;12278;53.058;9.028;2023-03-30T05:44:02;8.50;;;3.88;;
24102;SDS011;12278;53.058;9.028;2023-03-30T05:48:03;6.65;;;3.72;;
24102;SDS011;12278;53.058;9.028;2023-03-30T05:52:05;4.10;;;3.60;;
24102;SDS011;12278;53.058;9.028;2023-03-30T05:56:06;7.30;;;3.38;;
24102;SDS011;12278;53.058;9.028;2023-03-30T06:00:11;4.65;;;3.60;;
24102;SDS011;12278;53.058;9.028;2023-03-30T06:04:16;7.60;;;4.43;;
24102;SDS011;12278;53.058;9.028;2023-03-30T06:08:17;6.53;;;3.15;;
24102;SDS011;12278;53.058;9.028;2023-03-30T06:12:19;7.88;;;3.67;;
24102;SDS011;12278;53.058;9.028;2023-03-30T06:16:20;4.68;;;3.25;;
24102;SDS011;12278;53.058;9.028;2023-03-30T06:20:20;5.40;;;3.70;;
24102;SDS011;12278;53.058;9.028;2023-03-30T06:24:23;5.57;;;3.10;;
24102;SDS011;12278;53.058;9.028;2023-03-30T06:28:24;5.63;;;3.70;;
24102;SDS011;12278;53.058;9.028;2023-03-30T06:32:24;5.72;;;3.35;;
24102;SDS011;12278;53.058;9.028;2023-03-30T06:36:27;4.60;;;2.50;;
24102;SDS011;12278;53.058;9.028;2023-03-30T06:40:27;7.90;;;3.58;;
24102;SDS011;12278;53.058;9.028;2023-03-30T06:44:28;7.70;;;3.53;;
24102;SDS011;12278;53.058;9.028;2023-03-30T06:48:29;6.85;;;2.70;;
24102;SDS011;12278;53.058;9.028;2023-03-30T06:52:32;3.42;;;3.13;;
24102;SDS011;12278;53.058;9.028;2023-03-30T06:56:34;3.67;;;2.97;;
24102;SDS011;12278;53.058;9.028;2023-03-30T07:00:36;5.32;;;3.35;;
24102;SDS011;12278;53.058;9.028;2023-03-30T07:04:38;6.30;;;3.75;;
24102;SDS011;12278;53.058;9.028;2023-03-30T07:08:38;7.07;;;3.42;;
24102;SDS011;12278;53.058;9.028;2023-03-30T07:12:44;4.55;;;3.00;;
24102;SDS011;12278;53.058;9.028;2023-03-30T07:16:54;5.38;;;3.28;;
24102;SDS011;12278;53.058;9.028;2023-03-30T07:20:59;6.18;;;3.05;;
24102;SDS011;12278;53.058;9.028;2023-03-30T07:25:00;4.65;;;2.88;;
24102;SDS011;12278;53.058;9.028;2023-03-30T07:29:01;4.50;;;2.75;;
24102;SDS011;12278;53.058;9.028;2023-03-30T07:33:01;5.78;;;3.40;;
24102;SDS011;12278;53.058;9.028;2023-03-30T07:37:02;6.57;;;2.83;;
24102;SDS011;12278;53.058;9.028;2023-03-30T07:41:06;4.88;;;2.95;;
24102;SDS011;12278;53.058;9.028;2023-03-30T07:45:07;3.00;;;2.70;;
24102;SDS011;12278;53.058;9.028;2023-03-30T07:49:09;3.22;;;2.47;;
24102;SDS011;12278;53.058;9.028;2023-03-30T07:53:09;4.38;;;2.90;;
24102;SDS011;12278;53.058;9.028;2023-03-30T07:57:16;2.55;;;2.35;;
24102;SDS011;12278;53.058;9.028;2023-03-30T08:01:17;6.90;;;4.37;;
24102;SDS011;12278;53.058;9.028;2023-03-30T08:05:18;5.20;;;2.45;;
24102;SDS011;12278;53.058;9.028;2023-03-30T08:09:19;3.60;;;2.40;;
24102;SDS011;12278;53.058;9.028;2023-03-30T08:13:19;3.00;;;2.60;;
24102;SDS011;12278;53.058;9.028;2023-03-30T08:17:21;4.78;;;2.10;;
24102;SDS011;12278;53.058;9.028;2023-03-30T08:21:22;6.00;;;2.85;;
24102;SDS011;12278;53.058;9.028;2023-03-30T08:25:25;2.83;;;2.53;;
24102;SDS011;12278;53.058;9.028;2023-03-30T08:29:26;4.47;;;3.10;;
24102;SDS011;12278;53.058;9.028;2023-03-30T08:33:28;3.97;;;2.22;;
24102;SDS011;12278;53.058;9.028;2023-03-30T08:37:30;3.67;;;2.55;;
24102;SDS011;12278;53.058;9.028;2023-03-30T08:45:50;3.25;;;2.25;;
24102;SDS011;12278;53.058;9.028;2023-03-30T08:49:58;3.75;;;2.65;;
24102;SDS011;12278;53.058;9.028;2023-03-30T08:54:14;3.25;;;2.03;;
24102;SDS011;12278;53.058;9.028;2023-03-30T09:11:34;3.17;;;1.90;;
24102;SDS011;12278;53.058;9.028;2023-03-30T09:15:45;4.15;;;2.17;;
24102;SDS011;12278;53.058;9.028;2023-03-30T09:19:54;2.60;;;1.88;;
24102;SDS011;12278;53.058;9.028;2023-03-30T09:23:59;6.88;;;2.35;;
24102;SDS011;12278;53.058;9.028;2023-03-30T09:32:30;2.78;;;1.52;;
24102;SDS011;12278;53.058;9.028;2023-03-30T09:45:24;3.05;;;1.73;;
24102;SDS011;12278;53.058;9.028;2023-03-30T09:49:27;3.55;;;1.83;;
24102;SDS011;12278;53.058;9.028;2023-03-30T09:53:36;2.92;;;2.30;;
24102;SDS011;12278;53.058;9.028;2023-03-30T09:57:41;6.43;;;2.22;;
24102;SDS011;12278;53.058;9.028;2023-03-30T10:01:44;4.50;;;2.55;;
24102;SDS011;12278;53.058;9.028;2023-03-30T10:05:45;4.85;;;2.85;;
24102;SDS011;12278;53.058;9.028;2023-03-30T10:10:11;7.18;;;2.67;;
24102;SDS011;12278;53.058;9.028;2023-03-30T10:22:48;7.97;;;2.25;;
24102;SDS011;12278;53.058;9.028;2023-03-30T10:31:13;3.70;;;1.83;;
24102;SDS011;12278;53.058;9.028;2023-03-30T10:35:35;5.40;;;1.90;;
24102;SDS011;12278;53.058;9.028;2023-03-30T10:39:38;3.38;;;1.85;;
24102;SDS011;12278;53.058;9.028;2023-03-30T10:43:41;6.25;;;2.28;;
24102;SDS011;12278;53.058;9.028;2023-03-30T10:47:49;3.15;;;1.95;;
24102;SDS011;12278;53.058;9.028;2023-03-30T10:56:08;5.35;;;2.72;;
24102;SDS011;12278;53.058;9.028;2023-03-30T11:00:26;7.60;;;2.88;;
24102;SDS011;12278;53.058;9.028;2023-03-30T11:04:46;6.65;;;2.10;;
24102;SDS011;12278;53.058;9.028;2023-03-30T11:08:49;5.20;;;2.35;;
24102;SDS011;12278;53.058;9.028;2023-03-30T11:12:55;4.03;;;2.22;;
24102;SDS011;12278;53.058;9.028;2023-03-30T11:17:00;6.78;;;1.83;;
24102;SDS011;12278;53.058;9.028;2023-03-30T11:21:12;5.07;;;2.28;;
24102;SDS011;12278;53.058;9.028;2023-03-30T11:25:20;5.75;;;1.98;;
24102;SDS011;12278;53.058;9.028;2023-03-30T11:33:57;5.82;;;2.25;;
24102;SDS011;12278;53.058;9.028;2023-03-30T11:42:25;4.47;;;2.00;;
24102;SDS011;12278;53.058;9.028;2023-03-30T11:46:40;9.98;;;3.03;;
24102;SDS011;12278;53.058;9.028;2023-03-30T12:03:43;4.65;;;2.08;;
24102;SDS011;12278;53.058;9.028;2023-03-30T12:12:15;9.02;;;3.95;;
24102;SDS011;12278;53.058;9.028;2023-03-30T12:16:23;8.32;;;2.22;;
24102;SDS011;12278;53.058;9.028;2023-03-30T12:20:57;8.23;;;2.58;;
24102;SDS011;12278;53.058;9.028;2023-03-30T12:25:25;6.88;;;2.92;;
24102;SDS011;12278;53.058;9.028;2023-03-30T12:29:51;8.15;;;2.42;;
24102;SDS011;12278;53.058;9.028;2023-03-30T12:33:54;9.50;;;2.58;;
24102;SDS011;12278;53.058;9.028;2023-03-30T12:38:06;5.90;;;2.40;;
24102;SDS011;12278;53.058;9.028;2023-03-30T12:42:29;11.25;;;2.50;;
24102;SDS011;12278;53.058;9.028;2023-03-30T13:03:50;10.90;;;2.63;;
24102;SDS011;12278;53.058;9.028;2023-03-30T13:07:53;7.28;;;2.53;;
24102;SDS011;12278;53.058;9.028;2023-03-30T13:15:58;7.47;;;2.50;;
24102;SDS011;12278;53.058;9.028;2023-03-30T13:20:15;6.35;;;1.60;;
24102;SDS011;12278;53.058;9.028;2023-03-30T13:24:25;7.20;;;1.90;;
24102;SDS011;12278;53.058;9.028;2023-03-30T13:37:20;4.68;;;1.65;;
24102;SDS011;12278;53.058;9.028;2023-03-30T13:50:31;3.47;;;1.67;;
24102;SDS011;12278;53.058;9.028;2023-03-30T13:54:33;6.53;;;1.65;;
24102;SDS011;12278;53.058;9.028;2023-03-30T13:58:38;2.95;;;1.35;;
24102;SDS011;12278;53.058;9.028;2023-03-30T14:02:44;7.15;;;1.55;;
24102;SDS011;12278;53.058;9.028;2023-03-30T14:06:45;9.27;;;2.20;;
24102;SDS011;12278;53.058;9.028;2023-03-30T14:10:50;4.97;;;1.77;;
24102;SDS011;12278;53.058;9.028;2023-03-30T14:14:51;4.88;;;1.77;;
24102;SDS011;12278;53.058;9.028;2023-03-30T14:18:53;4.65;;;1.75;;
24102;SDS011;12278;53.058;9.028;2023-03-30T14:23:15;4.88;;;2.08;;
24102;SDS011;12278;53.058;9.028;2023-03-30T14:27:20;8.68;;;2.70;;
24102;SDS011;12278;53.058;9.028;2023-03-30T14:31:21;5.72;;;3.00;;
24102;SDS011;12278;53.058;9.028;2023-03-30T14:35:24;10.02;;;1.92;;
24102;SDS011;12278;53.058;9.028;2023-03-30T14:39:25;3.83;;;1.40;;
24102;SDS011;12278;53.058;9.028;2023-03-30T14:43:29;8.63;;;2.10;;
24102;SDS011;12278;53.058;9.028;2023-03-30T14:47:30;6.40;;;2.10;;
24102;SDS011;12278;53.058;9.028;2023-03-30T14:51:36;3.60;;;1.27;;
24102;SDS011;12278;53.058;9.028;2023-03-30T14:55:40;8.27;;;1.92;;
24102;SDS011;12278;53.058;9.028;2023-03-30T14:59:43;6.10;;;1.60;;
24102;SDS011;12278;53.058;9.028;2023-03-30T15:03:46;6.38;;;2.13;;
24102;SDS011;12278;53.058;9.028;2023-03-30T15:07:48;8.60;;;2.95;;
24102;SDS011;12278;53.058;9.028;2023-03-30T15:11:51;9.05;;;2.88;;
24102;SDS011;12278;53.058;9.028;2023-03-30T15:16:02;8.57;;;2.33;;
24102;SDS011;12278;53.058;9.028;2023-03-30T15:20:04;8.55;;;2.13;;
24102;SDS011;12278;53.058;9.028;2023-03-30T15:24:07;6.78;;;2.40;;
24102;SDS011;12278;53.058;9.028;2023-03-30T15:28:17;7.07;;;2.15;;
24102;SDS011;12278;53.058;9.028;2023-03-30T15:32:20;10.48;;;2.85;;
24102;SDS011;12278;53.058;9.028;2023-03-30T15:36:38;6.38;;;1.88;;
24102;SDS011;12278;53.058;9.028;2023-03-30T15:40:40;6.30;;;2.50;;
24102;SDS011;12278;53.058;9.028;2023-03-30T15:49:00;5.00;;;1.95;;
24102;SDS011;12278;53.058;9.028;2023-03-30T15:53:01;7.38;;;2.22;;
24102;SDS011;12278;53.058;9.028;2023-03-30T15:57:03;8.52;;;2.90;;
24102;SDS011;12278;53.058;9.028;2023-03-30T16:01:12;4.93;;;1.80;;
24102;SDS011;12278;53.058;9.028;2023-03-30T16:05:16;9.23;;;2.60;;
24102;SDS011;12278;53.058;9.028;2023-03-30T16:09:19;9.30;;;2.72;;
24102;SDS011;12278;53.058;9.028;2023-03-30T16:13:20;5.18;;;2.20;;
24102;SDS011;12278;53.058;9.028;2023-03-30T16:17:21;8.45;;;2.83;;
24102;SDS011;12278;53.058;9.028;2023-03-30T16:21:22;8.90;;;2.33;;
24102;SDS011;12278;53.058;9.028;2023-03-30T16:25:24;6.25;;;2.38;;
24102;SDS011;12278;53.058;9.028;2023-03-30T16:29:25;8.25;;;2.75;;
24102;SDS011;12278;53.058;9.028;2023-03-30T16:33:26;7.35;;;2.17;;
24102;SDS011;12278;53.058;9.028;2023-03-30T16:37:27;7.32;;;2.90;;
24102;SDS011;12278;53.058;9.028;2023-03-30T16:41:27;16.88;;;4.05;;
24102;SDS011;12278;53.058;9.028;2023-03-30T16:45:28;9.15;;;1.88;;
24102;SDS011;12278;53.058;9.028;2023-03-30T16:49:29;13.77;;;3.78;;
24102;SDS011;12278;53.058;9.028;2023-03-30T16:53:30;7.40;;;2.40;;
24102;SDS011;12278;53.058;9.028;2023-03-30T16:57:30;7.28;;;2.63;;
24102;SDS011;12278;53.058;9.028;2023-03-30T17:01:31;11.95;;;4.63;;
24102;SDS011;12278;53.058;9.028;2023-03-30T17:05:32;8.80;;;2.80;;
24102;SDS011;12278;53.058;9.028;2023-03-30T17:09:33;10.00;;;2.78;;
24102;SDS011;12278;53.058;9.028;2023-03-30T17:13:33;9.07;;;2.90;;
24102;SDS011;12278;53.058;9.028;2023-03-30T17:17:34;10.38;;;2.80;;
24102;SDS011;12278;53.058;9.028;2023-03-30T17:21:35;6.35;;;2.83;;
24102;SDS011;12278;53.058;9.028;2023-03-30T17:25:36;7.32;;;2.58;;
24102;SDS011;12278;53.058;9.028;2023-03-30T17:29:38;9.60;;;2.47;;
24102;SDS011;12278;53.058;9.028;2023-03-30T17:33:39;4.10;;;1.85;;
24102;SDS011;12278;53.058;9.028;2023-03-30T17:37:41;9.48;;;1.90;;
24102;SDS011;12278;53.058;9.028;2023-03-30T17:41:41;10.23;;;2.30;;
24102;SDS011;12278;53.058;9.028;2023-03-30T17:45:43;11.18;;;2.53;;
24102;SDS011;12278;53.058;9.028;2023-03-30T17:49:45;5.35;;;2.38;;
24102;SDS011;12278;53.058;9.028;2023-03-30T17:53:47;8.10;;;2.72;;
24102;SDS011;12278;53.058;9.028;2023-03-30T17:57:48;12.75;;;3.20;;
24102;SDS011;12278;53.058;9.028;2023-03-30T18:01:49;10.02;;;3.10;;
24102;SDS011;12278;53.058;9.028;2023-03-30T18:05:50;9.55;;;2.83;;
24102;SDS011;12278;53.058;9.028;2023-03-30T18:09:52;7.70;;;2.40;;
24102;SDS011;12278;53.058;9.028;2023-03-30T18:13:53;11.18;;;2.80;;
24102;SDS011;12278;53.058;9.028;2023-03-30T18:17:54;10.40;;;3.25;;
24102;SDS011;12278;53.058;9.028;2023-03-30T18:26:00;7.65;;;2.50;;
24102;SDS011;12278;53.058;9.028;2023-03-30T18:30:36;10.77;;;3.20;;
24102;SDS011;12278;53.058;9.028;2023-03-30T18:34:31;13.20;;;4.00;;
24102;SDS011;12278;53.058;9.028;2023-03-30T18:38:31;10.60;;;4.97;;
24102;SDS011;12278;53.058;9.028;2023-03-30T18:42:32;6.97;;;3.10;;
24102;SDS011;12278;53.058;9.028;2023-03-30T18:46:32;12.07;;;3.55;;
24102;SDS011;12278;53.058;9.028;2023-03-30T18:50:34;11.13;;;3.40;;
24102;SDS011;12278;53.058;9.028;2023-03-30T18:54:35;9.27;;;2.97;;
24102;SDS011;12278;53.058;9.028;2023-03-30T18:58:39;9.65;;;4.20;;
24102;SDS011;12278;53.058;9.028;2023-03-30T19:02:43;8.95;;;3.08;;
24102;SDS011;12278;53.058;9.028;2023-03-30T19:06:44;8.70;;;3.60;;
24102;SDS011;12278;53.058;9.028;2023-03-30T19:10:45;12.60;;;3.65;;
24102;SDS011;12278;53.058;9.028;2023-03-30T19:14:48;12.70;;;3.47;;
24102;SDS011;12278;53.058;9.028;2023-03-30T19:18:49;8.07;;;3.10;;
24102;SDS011;12278;53.058;9.028;2023-03-30T19:22:50;8.68;;;3.85;;
24102;SDS011;12278;53.058;9.028;2023-03-30T19:26:51;12.43;;;4.50;;
24102;SDS011;12278;53.058;9.028;2023-03-30T19:30:52;10.95;;;3.50;;
24102;SDS011;12278;53.058;9.028;2023-03-30T19:34:52;10.43;;;3.75;;
24102;SDS011;12278;53.058;9.028;2023-03-30T19:38:55;8.10;;;2.75;;
24102;SDS011;12278;53.058;9.028;2023-03-30T19:42:55;5.68;;;3.25;;
24102;SDS011;12278;53.058;9.028;2023-03-30T19:46:56;14.07;;;4.18;;
24102;SDS011;12278;53.058;9.028;2023-03-30T19:50:58;9.73;;;3.17;;
24102;SDS011;12278;53.058;9.028;2023-03-30T19:54:58;8.70;;;3.08;;
24102;SDS011;12278;53.058;9.028;2023-03-30T19:58:59;15.38;;;4.07;;
24102;SDS011;12278;53.058;9.028;2023-03-30T20:03:00;11.73;;;2.40;;
24102;SDS011;12278;53.058;9.028;2023-03-30T20:07:01;15.75;;;4.30;;
24102;SDS011;12278;53.058;9.028;2023-03-30T20:11:04;12.25;;;3.78;;
24102;SDS011;12278;53.058;9.028;2023-03-30T20:15:08;14.98;;;3.55;;
24102;SDS011;12278;53.058;9.028;2023-03-30T20:19:10;12.40;;;3.58;;
24102;SDS011;12278;53.058;9.028;2023-03-30T20:23:13;15.02;;;4.45;;
24102;SDS011;12278;53.058;9.028;2023-03-30T20:27:14;16.58;;;4.35;;
24102;SDS011;12278;53.058;9.028;2023-03-30T20:31:15;11.38;;;3.83;;
24102;SDS011;12278;53.058;9.028;2023-03-30T20:35:18;17.65;;;4.18;;
24102;SDS011;12278;53.058;9.028;2023-03-30T20:39:23;15.45;;;4.13;;
24102;SDS011;12278;53.058;9.028;2023-03-30T20:43:25;11.45;;;3.97;;
24102;SDS011;12278;53.058;9.028;2023-03-30T20:47:26;17.52;;;4.70;;
24102;SDS011;12278;53.058;9.028;2023-03-30T20:51:28;11.25;;;3.47;;
24102;SDS011;12278;53.058;9.028;2023-03-30T20:55:30;16.77;;;4.32;;
24102;SDS011;12278;53.058;9.028;2023-03-30T20:59:30;18.08;;;4.57;;
24102;SDS011;12278;53.058;9.028;2023-03-30T21:07:40;12.25;;;4.28;;
24102;SDS011;12278;53.058;9.028;2023-03-30T21:11:46;11.98;;;4.10;;
24102;SDS011;12278;53.058;9.028;2023-03-30T21:15:46;11.50;;;3.88;;
24102;SDS011;12278;53.058;9.028;2023-03-30T21:19:57;14.57;;;3.63;;
24102;SDS011;12278;53.058;9.028;2023-03-30T21:23:58;11.70;;;3.70;;
24102;SDS011;12278;53.058;9.028;2023-03-30T21:27:59;10.18;;;3.53;;
24102;SDS011;12278;53.058;9.028;2023-03-30T21:32:00;10.20;;;2.63;;
24102;SDS011;12278;53.058;9.028;2023-03-30T21:36:01;14.50;;;3.45;;
24102;SDS011;12278;53.058;9.028;2023-03-30T21:40:03;15.35;;;3.97;;
24102;SDS011;12278;53.058;9.028;2023-03-30T21:44:07;7.60;;;2.97;;
24102;SDS011;12278;53.058;9.028;2023-03-30T21:48:08;12.73;;;3.67;;
24102;SDS011;12278;53.058;9.028;2023-03-30T21:52:13;9.52;;;2.45;;
24102;SDS011;12278;53.058;9.028;2023-03-30T21:56:14;8.13;;;3.50;;
24102;SDS011;12278;53.058;9.028;2023-03-30T22:00:15;9.75;;;3.47;;
24102;SDS011;12278;53.058;9.028;2023-03-30T22:04:15;9.60;;;3.10;;
24102;SDS011;12278;53.058;9.028;2023-03-30T22:08:16;15.98;;;3.78;;
24102;SDS011;12278;53.058;9.028;2023-03-30T22:12:17;12.55;;;3.90;;
24102;SDS011;12278;53.058;9.028;2023-03-30T22:16:20;14.27;;;4.68;;
24102;SDS011;12278;53.058;9.028;2023-03-30T22:20:27;13.95;;;3.50;;
24102;SDS011;12278;53.058;9.028;2023-03-30T22:24:28;11.85;;;3.70;;
24102;SDS011;12278;53.058;9.028;2023-03-30T22:28:29;7.45;;;3.50;;
24102;SDS011;12278;53.058;9.028;2023-03-30T22:32:32;9.60;;;3.53;;
24102;SDS011;12278;53.058;9.028;2023-03-30T22:36:33;8.98;;;3.65;;
24102;SDS011;12278;53.058;9.028;2023-03-30T22:40:34;10.65;;;3.50;;
24102;SDS011;12278;53.058;9.028;2023-03-30T22:44:38;9.30;;;2.97;;
24102;SDS011;12278;53.058;9.028;2023-03-30T22:48:40;9.05;;;3.65;;
24102;SDS011;12278;53.058;9.028;2023-03-30T22:52:40;12.23;;;2.92;;
24102;SDS011;12278;53.058;9.028;2023-03-30T22:56:41;9.20;;;3.50;;
24102;SDS011;12278;53.058;9.028;2023-03-30T23:00:42;8.15;;;3.15;;
24102;SDS011;12278;53.058;9.028;2023-03-30T23:04:42;10.65;;;3.42;;
24102;SDS011;12278;53.058;9.028;2023-03-30T23:08:47;9.15;;;3.40;;
24102;SDS011;12278;53.058;9.028;2023-03-30T23:12:48;9.25;;;2.92;;
24102;SDS011;12278;53.058;9.028;2023-03-30T23:16:49;6.65;;;2.90;;
24102;SDS011;12278;53.058;9.028;2023-03-30T23:20:56;7.72;;;3.03;;
24102;SDS011;12278;53.058;9.028;2023-03-30T23:24:57;10.50;;;2.83;;
24102;SDS011;12278;53.058;9.028;2023-03-30T23:28:58;8.93;;;3.40;;
24102;SDS011;12278;53.058;9.028;2023-03-30T23:32:58;8.25;;;2.55;;
24102;SDS011;12278;53.058;9.028;2023-03-30T23:36:59;9.63;;;3.05;;
24102;SDS011;12278;53.058;9.028;2023-03-30T23:41:00;8.68;;;3.20;;
24102;SDS011;12278;53.058;9.028;2023-03-30T23:45:00;14.48;;;3.78;;
24102;SDS011;12278;53.058;9.028;2023-03-30T23:49:01;10.18;;;3.20;;
24102;SDS011;12278;53.058;9.028;2023-03-30T23:53:02;9.13;;;3.67;;
24102;SDS011;12278;53.058;9.028;2023-03-30T23:57:03;7.72;;;4.07;;
